sensor_id;sensor_type;location;lat;lon;timestamp;pressure;altitude;pressure_sealevel;temperature;humidity
49342;BME280;35210;41.606;-87.602;2022-10-16T00:01:11;99346.50;;;12.25;51.98
49342;BME280;35210;41.606;-87.602;2022-10-16T00:03:41;99341.53;;;12.11;53.04
49342;BME280;35210;41.606;-87.602;2022-10-16T00:06:12;99343.09;;;12.13;53.19
49342;BME280;35210;41.606;-87.602;2022-10-16T00:08:41;99345.81;;;12.02;52.75
49342;BME280;35210;41.606;-87.602;2022-10-16T00:11:12;99341.59;;;12.21;52.46
49342;BME280;35210;41.606;-87.602;2022-10-16T00:13:42;99346.50;;;12.25;52.60
49342;BME280;35210;41.606;-87.602;2022-10-16T00:16:12;99357.75;;;11.97;53.38
49342;BME280;35210;41.606;-87.602;2022-10-16T00:18:41;99350.78;;;11.96;52.63
49342;BME280;35210;41.606;-87.602;2022-10-16T00:21:14;99356.00;;;12.07;53.30
49342;BME280;35210;41.606;-87.602;2022-10-16T00:23:43;99357.88;;;12.16;52.79
49342;BME280;35210;41.606;-87.602;2022-10-16T00:26:15;99358.66;;;12.07;53.38
49342;BME280;35210;41.606;-87.602;2022-10-16T00:28:45;99357.63;;;12.19;53.41
49342;BME280;35210;41.606;-87.602;2022-10-16T00:31:14;99365.44;;;12.21;52.88
49342;BME280;35210;41.606;-87.602;2022-10-16T00:33:43;99361.03;;;12.31;52.61
49342;BME280;35210;41.606;-87.602;2022-10-16T00:36:15;99365.22;;;12.33;51.95
49342;BME280;35210;41.606;-87.602;2022-10-16T00:38:43;99369.03;;;12.20;53.01
49342;BME280;35210;41.606;-87.602;2022-10-16T00:41:17;99364.06;;;12.26;52.66
49342;BME280;35210;41.606;-87.602;2022-10-16T00:43:47;99370.78;;;12.30;53.34
49342;BME280;35210;41.606;-87.602;2022-10-16T00:46:18;99370.41;;;12.14;53.01
49342;BME280;35210;41.606;-87.602;2022-10-16T00:48:52;99364.84;;;12.17;53.16
49342;BME280;35210;41.606;-87.602;2022-10-16T00:51:28;99372.97;;;12.25;53.06
49342;BME280;35210;41.606;-87.602;2022-10-16T00:53:58;99363.69;;;12.10;53.71
49342;BME280;35210;41.606;-87.602;2022-10-16T00:56:26;99363.94;;;12.07;53.90
49342;BME280;35210;41.606;-87.602;2022-10-16T00:58:55;99366.47;;;12.08;53.72
49342;BME280;35210;41.606;-87.602;2022-10-16T01:01:24;99361.81;;;12.22;53.67
49342;BME280;35210;41.606;-87.602;2022-10-16T01:03:52;99359.56;;;12.17;53.70
49342;BME280;35210;41.606;-87.602;2022-10-16T01:06:25;99358.47;;;12.20;52.89
49342;BME280;35210;41.606;-87.602;2022-10-16T01:09:09;99365.75;;;12.27;53.49
49342;BME280;35210;41.606;-87.602;2022-10-16T01:11:45;99359.34;;;12.30;53.18
49342;BME280;35210;41.606;-87.602;2022-10-16T01:14:24;99360.72;;;12.24;53.19
49342;BME280;35210;41.606;-87.602;2022-10-16T01:17:00;99354.00;;;12.20;53.45
49342;BME280;35210;41.606;-87.602;2022-10-16T01:19:49;99360.97;;;12.21;53.97
49342;BME280;35210;41.606;-87.602;2022-10-16T01:22:26;99366.28;;;12.21;53.71
49342;BME280;35210;41.606;-87.602;2022-10-16T01:25:07;99362.41;;;12.25;53.49
49342;BME280;35210;41.606;-87.602;2022-10-16T01:27:41;99365.69;;;12.38;53.55
49342;BME280;35210;41.606;-87.602;2022-10-16T01:30:15;99363.03;;;12.38;53.65
49342;BME280;35210;41.606;-87.602;2022-10-16T01:32:50;99363.81;;;12.29;53.49
49342;BME280;35210;41.606;-87.602;2022-10-16T01:35:27;99359.03;;;12.23;53.52
49342;BME280;35210;41.606;-87.602;2022-10-16T01:38:02;99361.69;;;12.23;53.76
49342;BME280;35210;41.606;-87.602;2022-10-16T01:40:33;99360.19;;;12.30;53.23
49342;BME280;35210;41.606;-87.602;2022-10-16T01:43:06;99355.94;;;12.18;53.84
49342;BME280;35210;41.606;-87.602;2022-10-16T01:45:37;99358.78;;;12.26;53.44
49342;BME280;35210;41.606;-87.602;2022-10-16T01:48:06;99354.91;;;12.30;53.98
49342;BME280;35210;41.606;-87.602;2022-10-16T01:50:38;99355.16;;;12.27;53.58
49342;BME280;35210;41.606;-87.602;2022-10-16T01:53:09;99361.28;;;12.28;53.75
49342;BME280;35210;41.606;-87.602;2022-10-16T01:55:41;99354.00;;;12.20;53.88
49342;BME280;35210;41.606;-87.602;2022-10-16T01:58:14;99359.88;;;12.24;54.34
49342;BME280;35210;41.606;-87.602;2022-10-16T02:00:44;99363.09;;;12.27;54.06
49342;BME280;35210;41.606;-87.602;2022-10-16T02:03:17;99363.56;;;12.32;54.35
49342;BME280;35210;41.606;-87.602;2022-10-16T02:05:48;99363.56;;;12.32;54.45
49342;BME280;35210;41.606;-87.602;2022-10-16T02:08:18;99362.06;;;12.39;54.06
49342;BME280;35210;41.606;-87.602;2022-10-16T02:10:46;99356.56;;;12.31;54.03
49342;BME280;35210;41.606;-87.602;2022-10-16T02:13:18;99365.03;;;12.25;53.73
49342;BME280;35210;41.606;-87.602;2022-10-16T02:15:50;99368.19;;;12.40;53.85
49342;BME280;35210;41.606;-87.602;2022-10-16T02:18:19;99357.78;;;12.48;53.76
49342;BME280;35210;41.606;-87.602;2022-10-16T02:20:51;99361.97;;;12.50;53.78
49342;BME280;35210;41.606;-87.602;2022-10-16T02:23:27;99359.72;;;12.46;54.69
49342;BME280;35210;41.606;-87.602;2022-10-16T02:25:59;99363.34;;;12.45;53.88
49342;BME280;35210;41.606;-87.602;2022-10-16T02:28:37;99363.34;;;12.45;53.54
49342;BME280;35210;41.606;-87.602;2022-10-16T02:31:10;99360.03;;;12.53;53.59
49342;BME280;35210;41.606;-87.602;2022-10-16T02:33:42;99361.44;;;12.57;53.60
49342;BME280;35210;41.606;-87.602;2022-10-16T02:36:12;99357.38;;;12.53;53.75
49342;BME280;35210;41.606;-87.602;2022-10-16T02:38:41;99355.00;;;12.49;53.88
49342;BME280;35210;41.606;-87.602;2022-10-16T02:41:10;99357.72;;;12.38;54.07
49342;BME280;35210;41.606;-87.602;2022-10-16T02:43:40;99357.06;;;12.46;54.12
49342;BME280;35210;41.606;-87.602;2022-10-16T02:46:09;99349.72;;;12.49;53.78
49342;BME280;35210;41.606;-87.602;2022-10-16T02:48:37;99343.84;;;12.46;53.66
49342;BME280;35210;41.606;-87.602;2022-10-16T02:51:08;99348.03;;;12.48;53.40
49342;BME280;35210;41.606;-87.602;2022-10-16T02:53:37;99349.44;;;12.53;54.04
49342;BME280;35210;41.606;-87.602;2022-10-16T02:56:07;99352.31;;;12.40;53.82
49342;BME280;35210;41.606;-87.602;2022-10-16T02:58:35;99346.16;;;12.39;54.33
49342;BME280;35210;41.606;-87.602;2022-10-16T03:01:08;99338.28;;;12.49;54.08
49342;BME280;35210;41.606;-87.602;2022-10-16T03:03:39;99332.97;;;12.49;54.52
49342;BME280;35210;41.606;-87.602;2022-10-16T03:06:07;99337.44;;;12.48;53.70
49342;BME280;35210;41.606;-87.602;2022-10-16T03:08:35;99333.63;;;12.41;54.12
49342;BME280;35210;41.606;-87.602;2022-10-16T03:11:04;99331.81;;;12.42;54.07
49342;BME280;35210;41.606;-87.602;2022-10-16T03:13:33;99317.66;;;12.53;53.57
49342;BME280;35210;41.606;-87.602;2022-10-16T03:16:01;99326.03;;;12.58;53.46
49342;BME280;35210;41.606;-87.602;2022-10-16T03:18:31;99310.94;;;12.48;53.89
49342;BME280;35210;41.606;-87.602;2022-10-16T03:20:59;99319.91;;;12.67;53.74
49342;BME280;35210;41.606;-87.602;2022-10-16T03:23:27;99314.34;;;12.70;53.27
49342;BME280;35210;41.606;-87.602;2022-10-16T03:25:55;99308.22;;;12.69;53.69
49342;BME280;35210;41.606;-87.602;2022-10-16T03:28:23;99311.25;;;12.65;53.62
49342;BME280;35210;41.606;-87.602;2022-10-16T03:30:51;99303.31;;;12.65;52.93
49342;BME280;35210;41.606;-87.602;2022-10-16T03:33:20;99311.53;;;12.52;53.42
49342;BME280;35210;41.606;-87.602;2022-10-16T03:35:53;99308.16;;;12.50;53.67
49342;BME280;35210;41.606;-87.602;2022-10-16T03:38:22;99309.59;;;12.54;53.07
49342;BME280;35210;41.606;-87.602;2022-10-16T03:40:50;99304.28;;;12.64;53.48
49342;BME280;35210;41.606;-87.602;2022-10-16T03:43:18;99304.47;;;12.72;53.04
49342;BME280;35210;41.606;-87.602;2022-10-16T03:45:46;99292.84;;;12.63;53.27
49342;BME280;35210;41.606;-87.602;2022-10-16T03:48:16;99309.31;;;12.67;53.24
49342;BME280;35210;41.606;-87.602;2022-10-16T03:50:44;99301.94;;;12.70;52.78
49342;BME280;35210;41.606;-87.602;2022-10-16T03:53:17;99300.66;;;12.65;53.20
49342;BME280;35210;41.606;-87.602;2022-10-16T03:55:45;99303.44;;;12.63;53.30
49342;BME280;35210;41.606;-87.602;2022-10-16T03:58:13;99287.03;;;12.60;53.52
49342;BME280;35210;41.606;-87.602;2022-10-16T04:00:42;99290.06;;;12.65;53.69
49342;BME280;35210;41.606;-87.602;2022-10-16T04:03:11;99291.03;;;12.64;53.49
49342;BME280;35210;41.606;-87.602;2022-10-16T04:05:39;99289.53;;;12.71;53.31
49342;BME280;35210;41.606;-87.602;2022-10-16T04:08:07;99286.88;;;12.61;53.16
49342;BME280;35210;41.606;-87.602;2022-10-16T04:10:37;99281.41;;;12.63;53.37
49342;BME280;35210;41.606;-87.602;2022-10-16T04:13:05;99289.75;;;12.48;53.40
49342;BME280;35210;41.606;-87.602;2022-10-16T04:15:33;99277.50;;;12.47;53.63
49342;BME280;35210;41.606;-87.602;2022-10-16T04:18:03;99279.78;;;12.62;53.13
49342;BME280;35210;41.606;-87.602;2022-10-16T04:20:31;99275.84;;;12.56;53.65
49342;BME280;35210;41.606;-87.602;2022-10-16T04:22:59;99267.78;;;12.58;53.41
49342;BME280;35210;41.606;-87.602;2022-10-16T04:25:27;99272.50;;;12.54;53.37
49342;BME280;35210;41.606;-87.602;2022-10-16T04:27:57;99271.53;;;12.65;53.33
49342;BME280;35210;41.606;-87.602;2022-10-16T04:30:26;99275.28;;;12.53;53.05
49342;BME280;35210;41.606;-87.602;2022-10-16T04:32:54;99270.69;;;12.64;53.24
49342;BME280;35210;41.606;-87.602;2022-10-16T04:35:22;99272.81;;;12.61;53.02
49342;BME280;35210;41.606;-87.602;2022-10-16T04:37:51;99267.38;;;12.72;52.58
49342;BME280;35210;41.606;-87.602;2022-10-16T04:40:19;99262.59;;;12.66;53.04
49342;BME280;35210;41.606;-87.602;2022-10-16T04:42:47;99264.84;;;12.70;53.13
49342;BME280;35210;41.606;-87.602;2022-10-16T04:45:17;99257.88;;;12.60;52.85
49342;BME280;35210;41.606;-87.602;2022-10-16T04:47:45;99263.88;;;12.62;52.60
49342;BME280;35210;41.606;-87.602;2022-10-16T04:50:14;99265.13;;;12.58;52.94
49342;BME280;35210;41.606;-87.602;2022-10-16T04:52:42;99261.91;;;12.64;53.22
49342;BME280;35210;41.606;-87.602;2022-10-16T04:55:10;99262.47;;;12.67;52.77
49342;BME280;35210;41.606;-87.602;2022-10-16T04:57:39;99254.41;;;12.59;53.04
49342;BME280;35210;41.606;-87.602;2022-10-16T05:00:09;99251.19;;;12.25;54.32
49342;BME280;35210;41.606;-87.602;2022-10-16T05:02:39;99247.28;;;12.20;54.53
49342;BME280;35210;41.606;-87.602;2022-10-16T05:05:08;99249.31;;;12.37;54.11
49342;BME280;35210;41.606;-87.602;2022-10-16T05:07:37;99246.47;;;12.29;54.36
49342;BME280;35210;41.606;-87.602;2022-10-16T05:10:06;99243.75;;;12.40;54.07
49342;BME280;35210;41.606;-87.602;2022-10-16T05:12:34;99243.25;;;12.25;54.64
49342;BME280;35210;41.606;-87.602;2022-10-16T05:15:03;99240.91;;;12.32;55.21
49342;BME280;35210;41.606;-87.602;2022-10-16T05:17:32;99240.78;;;12.33;54.52
49342;BME280;35210;41.606;-87.602;2022-10-16T05:20:04;99242.03;;;12.29;54.97
49342;BME280;35210;41.606;-87.602;2022-10-16T05:22:32;99240.56;;;12.15;55.86
49342;BME280;35210;41.606;-87.602;2022-10-16T05:25:02;99236.34;;;12.03;55.87
49342;BME280;35210;41.606;-87.602;2022-10-16T05:27:31;99228.03;;;12.17;55.37
49342;BME280;35210;41.606;-87.602;2022-10-16T05:29:59;99224.69;;;12.15;55.70
49342;BME280;35210;41.606;-87.602;2022-10-16T05:32:28;99231.97;;;12.23;55.85
49342;BME280;35210;41.606;-87.602;2022-10-16T05:34:56;99219.25;;;12.17;55.53
49342;BME280;35210;41.606;-87.602;2022-10-16T05:37:30;99233.19;;;12.19;55.34
49342;BME280;35210;41.606;-87.602;2022-10-16T05:39:58;99230.59;;;11.98;56.07
49342;BME280;35210;41.606;-87.602;2022-10-16T05:42:26;99226.50;;;12.15;56.18
49342;BME280;35210;41.606;-87.602;2022-10-16T05:44:55;99225.44;;;11.97;56.89
49342;BME280;35210;41.606;-87.602;2022-10-16T05:47:24;99236.38;;;12.13;56.18
49342;BME280;35210;41.606;-87.602;2022-10-16T05:49:52;99226.53;;;11.94;56.75
49342;BME280;35210;41.606;-87.602;2022-10-16T05:52:22;99229.16;;;11.84;56.63
49342;BME280;35210;41.606;-87.602;2022-10-16T05:54:51;99222.91;;;11.86;57.50
49342;BME280;35210;41.606;-87.602;2022-10-16T05:57:20;99223.78;;;11.75;57.70
49342;BME280;35210;41.606;-87.602;2022-10-16T05:59:48;99220.66;;;11.81;57.68
49342;BME280;35210;41.606;-87.602;2022-10-16T06:02:16;99226.81;;;11.91;57.68
49342;BME280;35210;41.606;-87.602;2022-10-16T06:04:45;99219.84;;;11.90;57.63
49342;BME280;35210;41.606;-87.602;2022-10-16T06:07:13;99224.59;;;11.96;57.15
49342;BME280;35210;41.606;-87.602;2022-10-16T06:09:42;99222.09;;;11.95;57.26
49342;BME280;35210;41.606;-87.602;2022-10-16T06:12:11;99233.63;;;11.94;57.73
49342;BME280;35210;41.606;-87.602;2022-10-16T06:14:39;99222.91;;;11.95;57.79
49342;BME280;35210;41.606;-87.602;2022-10-16T06:17:07;99227.78;;;11.90;57.97
49342;BME280;35210;41.606;-87.602;2022-10-16T06:19:36;99226.53;;;11.94;57.69
49342;BME280;35210;41.606;-87.602;2022-10-16T06:22:04;99231.97;;;11.93;57.88
49342;BME280;35210;41.606;-87.602;2022-10-16T06:24:33;99225.44;;;11.97;57.98
49342;BME280;35210;41.606;-87.602;2022-10-16T06:27:01;99231.56;;;11.88;58.13
49342;BME280;35210;41.606;-87.602;2022-10-16T06:29:32;99229.75;;;11.98;58.30
49342;BME280;35210;41.606;-87.602;2022-10-16T06:32:00;99236.53;;;11.91;57.89
49342;BME280;35210;41.606;-87.602;2022-10-16T06:34:28;99226.53;;;11.94;58.17
49342;BME280;35210;41.606;-87.602;2022-10-16T06:36:56;99231.81;;;11.84;58.80
49342;BME280;35210;41.606;-87.602;2022-10-16T06:39:24;99221.50;;;11.81;58.97
49342;BME280;35210;41.606;-87.602;2022-10-16T06:41:52;99231.56;;;11.88;58.41
49342;BME280;35210;41.606;-87.602;2022-10-16T06:44:21;99235.16;;;11.87;58.57
49342;BME280;35210;41.606;-87.602;2022-10-16T06:46:51;99228.19;;;11.86;59.12
49342;BME280;35210;41.606;-87.602;2022-10-16T06:49:20;99236.31;;;11.52;60.12
49342;BME280;35210;41.606;-87.602;2022-10-16T06:51:49;99235.28;;;11.64;59.84
49342;BME280;35210;41.606;-87.602;2022-10-16T06:54:17;99237.72;;;11.56;59.88
49342;BME280;35210;41.606;-87.602;2022-10-16T06:56:46;99231.91;;;11.62;59.60
49342;BME280;35210;41.606;-87.602;2022-10-16T06:59:15;99237.91;;;11.64;59.62
49342;BME280;35210;41.606;-87.602;2022-10-16T07:01:43;99235.47;;;11.72;59.47
49342;BME280;35210;41.606;-87.602;2022-10-16T07:04:13;99233.91;;;11.70;59.54
49342;BME280;35210;41.606;-87.602;2022-10-16T07:06:42;99235.09;;;11.77;59.75
49342;BME280;35210;41.606;-87.602;2022-10-16T07:09:10;99224.88;;;11.72;59.11
49342;BME280;35210;41.606;-87.602;2022-10-16T07:11:40;99236.25;;;11.84;58.86
49342;BME280;35210;41.606;-87.602;2022-10-16T07:14:15;99239.16;;;11.81;59.22
49342;BME280;35210;41.606;-87.602;2022-10-16T07:16:52;99234.59;;;11.83;59.15
49342;BME280;35210;41.606;-87.602;2022-10-16T07:19:22;99236.25;;;11.84;59.10
49342;BME280;35210;41.606;-87.602;2022-10-16T07:21:51;99244.78;;;11.88;59.37
49342;BME280;35210;41.606;-87.602;2022-10-16T07:24:19;99246.84;;;11.84;59.21
49342;BME280;35210;41.606;-87.602;2022-10-16T07:26:47;99247.41;;;11.88;59.63
49342;BME280;35210;41.606;-87.602;2022-10-16T07:29:16;99253.38;;;11.90;59.36
49342;BME280;35210;41.606;-87.602;2022-10-16T07:31:46;99253.09;;;11.83;59.06
49342;BME280;35210;41.606;-87.602;2022-10-16T07:34:16;99251.03;;;11.87;59.23
49342;BME280;35210;41.606;-87.602;2022-10-16T07:36:50;99250.06;;;11.88;59.34
49342;BME280;35210;41.606;-87.602;2022-10-16T07:39:18;99254.38;;;11.89;59.61
49342;BME280;35210;41.606;-87.602;2022-10-16T07:41:47;99256.03;;;11.90;59.30
49342;BME280;35210;41.606;-87.602;2022-10-16T07:44:16;99250.63;;;11.91;59.54
49342;BME280;35210;41.606;-87.602;2022-10-16T07:46:44;99250.22;;;11.96;58.91
49342;BME280;35210;41.606;-87.602;2022-10-16T07:49:12;99253.13;;;11.93;59.17
49342;BME280;35210;41.606;-87.602;2022-10-16T07:51:40;99248.09;;;11.90;58.91
49342;BME280;35210;41.606;-87.602;2022-10-16T07:54:10;99247.41;;;11.88;59.46
49342;BME280;35210;41.606;-87.602;2022-10-16T07:56:38;99253.94;;;11.83;59.52
49342;BME280;35210;41.606;-87.602;2022-10-16T07:59:06;99254.91;;;11.82;59.57
49342;BME280;35210;41.606;-87.602;2022-10-16T08:01:34;99260.19;;;11.82;59.46
49342;BME280;35210;41.606;-87.602;2022-10-16T08:04:02;99266.59;;;11.80;59.70
49342;BME280;35210;41.606;-87.602;2022-10-16T08:06:35;99272.47;;;11.83;59.37
49342;BME280;35210;41.606;-87.602;2022-10-16T08:09:04;99265.75;;;11.79;60.49
49342;BME280;35210;41.606;-87.602;2022-10-16T08:11:34;99278.84;;;11.81;60.48
49342;BME280;35210;41.606;-87.602;2022-10-16T08:14:02;99270.91;;;11.81;60.32
49342;BME280;35210;41.606;-87.602;2022-10-16T08:16:30;99275.72;;;11.76;59.59
49342;BME280;35210;41.606;-87.602;2022-10-16T08:18:58;99275.00;;;11.74;59.83
49342;BME280;35210;41.606;-87.602;2022-10-16T08:21:26;99270.34;;;11.77;59.56
49342;BME280;35210;41.606;-87.602;2022-10-16T08:23:54;99274.66;;;11.78;60.17
49342;BME280;35210;41.606;-87.602;2022-10-16T08:26:22;99272.25;;;11.75;59.96
49342;BME280;35210;41.606;-87.602;2022-10-16T08:28:53;99276.56;;;11.76;60.05
49342;BME280;35210;41.606;-87.602;2022-10-16T08:31:21;99292.69;;;11.73;60.23
49342;BME280;35210;41.606;-87.602;2022-10-16T08:33:49;99291.97;;;11.71;60.45
49342;BME280;35210;41.606;-87.602;2022-10-16T08:36:18;99293.31;;;11.77;60.10
49342;BME280;35210;41.606;-87.602;2022-10-16T08:38:48;99291.72;;;11.74;60.37
49342;BME280;35210;41.606;-87.602;2022-10-16T08:41:53;99303.28;;;11.73;59.97
49342;BME280;35210;41.606;-87.602;2022-10-16T08:44:41;99297.97;;;11.73;60.43
49342;BME280;35210;41.606;-87.602;2022-10-16T08:47:17;99294.63;;;11.71;60.46
49342;BME280;35210;41.606;-87.602;2022-10-16T08:49:58;99303.78;;;11.67;60.50
49342;BME280;35210;41.606;-87.602;2022-10-16T08:52:32;99303.78;;;11.67;60.42
49342;BME280;35210;41.606;-87.602;2022-10-16T08:55:02;99304.63;;;11.68;60.83
49342;BME280;35210;41.606;-87.602;2022-10-16T08:57:31;99305.47;;;11.68;60.98
49342;BME280;35210;41.606;-87.602;2022-10-16T09:00:12;99298.25;;;11.70;60.70
49342;BME280;35210;41.606;-87.602;2022-10-16T09:02:48;99300.16;;;11.68;60.75
49342;BME280;35210;41.606;-87.602;2022-10-16T09:08:23;99304.50;;;11.69;60.93
49342;BME280;35210;41.606;-87.602;2022-10-16T09:10:59;99296.56;;;11.69;60.47
49342;BME280;35210;41.606;-87.602;2022-10-16T09:13:35;99304.50;;;11.69;61.19
49342;BME280;35210;41.606;-87.602;2022-10-16T09:16:15;99302.56;;;11.71;60.56
49342;BME280;35210;41.606;-87.602;2022-10-16T09:18:50;99303.41;;;11.72;61.01
49342;BME280;35210;41.606;-87.602;2022-10-16T09:21:23;99305.19;;;11.71;61.10
49342;BME280;35210;41.606;-87.602;2022-10-16T09:23:54;99304.75;;;11.66;60.68
49342;BME280;35210;41.606;-87.602;2022-10-16T09:26:26;99296.94;;;11.65;60.62
49342;BME280;35210;41.606;-87.602;2022-10-16T09:28:54;99298.75;;;11.64;61.32
49342;BME280;35210;41.606;-87.602;2022-10-16T09:31:25;99299.72;;;11.63;60.94
49342;BME280;35210;41.606;-87.602;2022-10-16T09:33:54;99304.88;;;11.65;61.04
49342;BME280;35210;41.606;-87.602;2022-10-16T09:36:26;99305.13;;;11.62;60.87
49342;BME280;35210;41.606;-87.602;2022-10-16T09:39:04;99304.81;;;11.55;61.60
49342;BME280;35210;41.606;-87.602;2022-10-16T09:41:34;99299.19;;;11.48;61.94
49342;BME280;35210;41.606;-87.602;2022-10-16T09:44:14;99297.63;;;11.46;62.69
49342;BME280;35210;41.606;-87.602;2022-10-16T09:46:45;99298.59;;;11.45;62.60
49342;BME280;35210;41.606;-87.602;2022-10-16T09:49:21;99300.53;;;11.43;63.39
49342;BME280;35210;41.606;-87.602;2022-10-16T09:51:51;99289.38;;;11.39;63.28
49342;BME280;35210;41.606;-87.602;2022-10-16T09:54:21;99283.22;;;11.39;63.96
49342;BME280;35210;41.606;-87.602;2022-10-16T09:56:49;99285.16;;;11.37;63.84
49342;BME280;35210;41.606;-87.602;2022-10-16T09:59:19;99287.09;;;11.35;63.66
49342;BME280;35210;41.606;-87.602;2022-10-16T10:01:50;99289.03;;;11.33;63.72
49342;BME280;35210;41.606;-87.602;2022-10-16T10:04:20;99281.34;;;11.30;63.94
49342;BME280;35210;41.606;-87.602;2022-10-16T10:06:51;99293.38;;;11.23;64.58
49342;BME280;35210;41.606;-87.602;2022-10-16T10:09:22;99294.84;;;11.15;64.69
49342;BME280;35210;41.606;-87.602;2022-10-16T10:11:52;99296.53;;;11.16;65.00
49342;BME280;35210;41.606;-87.602;2022-10-16T10:14:31;99300.28;;;11.14;65.26
49342;BME280;35210;41.606;-87.602;2022-10-16T10:17:11;99305.69;;;11.12;64.92
49342;BME280;35210;41.606;-87.602;2022-10-16T10:19:47;99304.16;;;11.10;64.86
49342;BME280;35210;41.606;-87.602;2022-10-16T10:22:23;99312.19;;;11.08;64.33
49342;BME280;35210;41.606;-87.602;2022-10-16T10:24:56;99307.88;;;11.07;64.49
49342;BME280;35210;41.606;-87.602;2022-10-16T10:27:32;99311.72;;;11.03;64.56
49342;BME280;35210;41.606;-87.602;2022-10-16T10:30:08;99309.22;;;11.02;64.92
49342;BME280;35210;41.606;-87.602;2022-10-16T10:32:46;99316.31;;;11.01;64.50
49342;BME280;35210;41.606;-87.602;2022-10-16T10:35:23;99315.00;;;10.96;64.45
49342;BME280;35210;41.606;-87.602;2022-10-16T10:38:11;99305.50;;;10.93;65.27
49342;BME280;35210;41.606;-87.602;2022-10-16T10:40:50;99301.44;;;10.89;64.53
49342;BME280;35210;41.606;-87.602;2022-10-16T10:43:30;99307.81;;;10.86;65.03
49342;BME280;35210;41.606;-87.602;2022-10-16T10:46:05;99296.63;;;10.83;65.57
49342;BME280;35210;41.606;-87.602;2022-10-16T10:48:59;99306.63;;;10.79;65.44
49342;BME280;35210;41.606;-87.602;2022-10-16T10:51:36;99308.53;;;10.77;65.38
49342;BME280;35210;41.606;-87.602;2022-10-16T10:54:14;99307.94;;;10.74;65.24
49342;BME280;35210;41.606;-87.602;2022-10-16T10:56:52;99309.88;;;10.72;65.43
49342;BME280;35210;41.606;-87.602;2022-10-16T10:59:38;99322.34;;;10.70;65.84
49342;BME280;35210;41.606;-87.602;2022-10-16T11:02:18;99319.22;;;10.65;65.61
49342;BME280;35210;41.606;-87.602;2022-10-16T11:05:07;99313.34;;;10.61;66.64
49342;BME280;35210;41.606;-87.602;2022-10-16T11:07:47;99327.63;;;10.59;65.64
49342;BME280;35210;41.606;-87.602;2022-10-16T11:10:21;99327.63;;;10.59;66.25
49342;BME280;35210;41.606;-87.602;2022-10-16T11:12:53;99334.59;;;10.60;65.84
49342;BME280;35210;41.606;-87.602;2022-10-16T11:15:27;99323.31;;;10.58;66.52
49342;BME280;35210;41.606;-87.602;2022-10-16T11:18:02;99314.19;;;10.50;66.96
49342;BME280;35210;41.606;-87.602;2022-10-16T11:20:42;99312.03;;;10.44;67.16
49342;BME280;35210;41.606;-87.602;2022-10-16T11:23:15;99315.88;;;10.40;67.30
49342;BME280;35210;41.606;-87.602;2022-10-16T11:25:45;99306.06;;;10.31;68.48
49342;BME280;35210;41.606;-87.602;2022-10-16T11:28:20;99309.91;;;10.27;68.30
49342;BME280;35210;41.606;-87.602;2022-10-16T11:30:56;99302.34;;;10.23;68.78
49342;BME280;35210;41.606;-87.602;2022-10-16T11:33:30;99308.69;;;10.20;68.74
49342;BME280;35210;41.606;-87.602;2022-10-16T11:36:08;99308.91;;;10.17;68.84
49342;BME280;35210;41.606;-87.602;2022-10-16T11:38:41;99310.81;;;10.15;69.58
49342;BME280;35210;41.606;-87.602;2022-10-16T11:41:22;99303.13;;;10.12;69.13
49342;BME280;35210;41.606;-87.602;2022-10-16T11:44:04;99297.84;;;10.12;69.18
49342;BME280;35210;41.606;-87.602;2022-10-16T11:46:36;99306.00;;;10.09;69.46
49342;BME280;35210;41.606;-87.602;2022-10-16T11:49:11;99304.56;;;10.05;70.05
49342;BME280;35210;41.606;-87.602;2022-10-16T11:51:48;99312.47;;;10.05;69.43
49342;BME280;35210;41.606;-87.602;2022-10-16T11:54:24;99315.34;;;10.02;69.24
49342;BME280;35210;41.606;-87.602;2022-10-16T11:57:01;99323.38;;;10.00;69.37
49342;BME280;35210;41.606;-87.602;2022-10-16T11:59:36;99317.38;;;9.98;69.64
49342;BME280;35210;41.606;-87.602;2022-10-16T12:02:26;99312.94;;;9.99;69.24
49342;BME280;35210;41.606;-87.602;2022-10-16T12:05:23;99330.81;;;9.95;69.21
49342;BME280;35210;41.606;-87.602;2022-10-16T12:08:06;99332.59;;;9.95;69.37
49342;BME280;35210;41.606;-87.602;2022-10-16T12:10:38;99331.88;;;9.93;69.92
49342;BME280;35210;41.606;-87.602;2022-10-16T12:13:30;99342.78;;;9.88;69.39
49342;BME280;35210;41.606;-87.602;2022-10-16T12:16:20;99341.22;;;9.85;69.78
49342;BME280;35210;41.606;-87.602;2022-10-16T12:18:49;99340.47;;;9.83;70.22
49342;BME280;35210;41.606;-87.602;2022-10-16T12:21:30;99340.59;;;9.82;69.73
49342;BME280;35210;41.606;-87.602;2022-10-16T12:24:03;99344.31;;;9.79;70.02
49342;BME280;35210;41.606;-87.602;2022-10-16T12:26:33;99335.66;;;9.77;70.21
49342;BME280;35210;41.606;-87.602;2022-10-16T12:29:23;99344.66;;;9.75;70.41
49342;BME280;35210;41.606;-87.602;2022-10-16T12:31:56;99343.19;;;9.71;70.31
49342;BME280;35210;41.606;-87.602;2022-10-16T12:34:27;99354.69;;;9.70;70.97
49342;BME280;35210;41.606;-87.602;2022-10-16T12:37:08;99364.16;;;9.72;71.08
49342;BME280;35210;41.606;-87.602;2022-10-16T12:39:39;99368.72;;;9.70;71.27
49342;BME280;35210;41.606;-87.602;2022-10-16T12:42:31;99365.25;;;9.70;70.84
49342;BME280;35210;41.606;-87.602;2022-10-16T12:45:01;99367.75;;;9.71;70.63
49342;BME280;35210;41.606;-87.602;2022-10-16T12:47:48;99370.41;;;9.71;71.83
49342;BME280;35210;41.606;-87.602;2022-10-16T12:50:30;99371.13;;;9.73;71.75
49342;BME280;35210;41.606;-87.602;2022-10-16T12:52:58;99374.25;;;9.78;72.03
49342;BME280;35210;41.606;-87.602;2022-10-16T12:55:35;99383.84;;;9.79;71.59
49342;BME280;35210;41.606;-87.602;2022-10-16T12:58:23;99384.59;;;9.81;71.68
49342;BME280;35210;41.606;-87.602;2022-10-16T13:00:57;99387.00;;;9.84;72.30
49342;BME280;35210;41.606;-87.602;2022-10-16T13:03:59;99386.53;;;9.91;71.88
49342;BME280;35210;41.606;-87.602;2022-10-16T13:06:39;99396.63;;;9.97;72.00
49342;BME280;35210;41.606;-87.602;2022-10-16T13:09:34;99390.28;;;9.99;71.92